createdAt,value
2022-10-18T00:00:46.281Z,100548.63
2022-10-18T00:03:13.145Z,100546.00
2022-10-18T00:05:40.018Z,100549.81
2022-10-18T00:08:07.001Z,100542.94
2022-10-18T00:10:33.861Z,100542.22
2022-10-18T00:13:00.852Z,100537.47
2022-10-18T00:15:27.767Z,100543.41
2022-10-18T00:17:54.653Z,100526.81
2022-10-18T00:20:21.780Z,100528.50
2022-10-18T00:22:48.667Z,100525.88
2022-10-18T00:25:15.974Z,100525.28
2022-10-18T00:27:42.911Z,100520.19
2022-10-18T00:30:10.291Z,100514.63
2022-10-18T00:32:42.043Z,100521.28
2022-10-18T00:35:09.737Z,100502.44
2022-10-18T00:37:36.608Z,100511.44
2022-10-18T00:40:04.732Z,100511.19
2022-10-18T00:42:34.539Z,100510.16
2022-10-18T00:45:19.142Z,100492.69
2022-10-18T00:47:51.343Z,100495.09
2022-10-18T00:50:21.370Z,100488.97
2022-10-18T00:52:53.663Z,100489.28
2022-10-18T00:55:20.797Z,100487.38
2022-10-18T00:57:49.101Z,100486.56
2022-10-18T01:00:16.663Z,100481.56
2022-10-18T01:02:45.511Z,100477.41
2022-10-18T01:05:14.957Z,100473.97
2022-10-18T01:08:24.467Z,100467.81
2022-10-18T01:11:26.619Z,100471.72
2022-10-18T01:14:21.175Z,100481.09
2022-10-18T01:17:08.829Z,100471.13
2022-10-18T01:20:00.291Z,100469.22
2022-10-18T01:22:51.780Z,100473.28
2022-10-18T01:25:27.455Z,100482.03
2022-10-18T01:28:15.729Z,100480.59
2022-10-18T01:30:54.144Z,100480.81
2022-10-18T01:33:38.501Z,100461.63
2022-10-18T01:36:23.461Z,100464.84
2022-10-18T01:38:55.382Z,100470.91
2022-10-18T01:41:25.376Z,100460.22
2022-10-18T01:43:57.672Z,100461.63
2022-10-18T01:46:26.404Z,100458.44
2022-10-18T01:48:55.002Z,100448.00
2022-10-18T01:51:26.975Z,100446.72
2022-10-18T01:53:54.385Z,100444.47
2022-10-18T01:56:57.632Z,100438.16
2022-10-18T01:59:38.285Z,100444.81
2022-10-18T02:02:11.165Z,100440.91
2022-10-18T02:04:51.658Z,100430.59
2022-10-18T02:07:24.395Z,100431.44
2022-10-18T02:10:18.861Z,100426.81
2022-10-18T02:12:48.557Z,100427.03
2022-10-18T02:15:20.644Z,100425.50
2022-10-18T02:17:47.680Z,100418.72
2022-10-18T02:20:20.475Z,100422.88
2022-10-18T02:22:50.895Z,100425.13
2022-10-18T02:25:23.013Z,100416.47
2022-10-18T02:27:50.208Z,100411.84
2022-10-18T02:30:17.604Z,100419.44
2022-10-18T02:32:53.624Z,100400.59
2022-10-18T02:35:32.135Z,100400.84
2022-10-18T02:37:59.456Z,100396.19
2022-10-18T02:40:26.816Z,100394.69
2022-10-18T02:42:58.323Z,100386.34
2022-10-18T02:45:26.770Z,100394.53
2022-10-18T02:47:53.795Z,100389.31
2022-10-18T02:50:20.732Z,100389.06
2022-10-18T02:52:47.627Z,100386.22
2022-10-18T02:55:14.492Z,100378.41
2022-10-18T02:57:41.510Z,100375.44
2022-10-18T03:00:09.190Z,100359.47
2022-10-18T03:02:36.070Z,100365.38
2022-10-18T03:05:03.378Z,100368.44
2022-10-18T03:07:30.788Z,100360.16
2022-10-18T03:09:58.120Z,100352.81
2022-10-18T03:12:24.986Z,100345.97
2022-10-18T03:14:51.895Z,100342.84
2022-10-18T03:17:18.749Z,100342.72
2022-10-18T03:19:45.727Z,100333.25
2022-10-18T03:22:12.553Z,100330.53
2022-10-18T03:24:39.398Z,100322.72
2022-10-18T03:27:06.350Z,100329.09
2022-10-18T03:29:33.187Z,100324.38
2022-10-18T03:32:00.130Z,100316.31
2022-10-18T03:34:26.990Z,100311.22
2022-10-18T03:36:54.986Z,100308.13
2022-10-18T03:39:21.896Z,100308.03
2022-10-18T03:41:48.811Z,100298.31
2022-10-18T03:44:15.713Z,100297.97
2022-10-18T03:46:42.668Z,100282.22
2022-10-18T03:49:09.550Z,100273.81
2022-10-18T03:51:36.478Z,100274.88
2022-10-18T03:54:03.620Z,100272.63
2022-10-18T03:56:30.629Z,100267.88
2022-10-18T03:58:57.464Z,100265.03
2022-10-18T04:01:24.415Z,100267.28
2022-10-18T04:03:51.397Z,100263.63
2022-10-18T04:06:18.319Z,100272.97
2022-10-18T04:08:45.240Z,100268.47
2022-10-18T04:11:12.571Z,100263.72
2022-10-18T04:13:39.529Z,100253.28
2022-10-18T04:16:06.647Z,100258.25
2022-10-18T04:18:33.499Z,100245.94
2022-10-18T04:21:00.513Z,100251.50
2022-10-18T04:23:27.406Z,100242.13
2022-10-18T04:25:54.332Z,100246.88
2022-10-18T04:28:21.259Z,100233.59
2022-10-18T04:30:52.513Z,100230.88
2022-10-18T04:33:20.048Z,100225.88
2022-10-18T04:35:47.422Z,100221.28
2022-10-18T04:38:14.896Z,100217.53
2022-10-18T04:40:41.847Z,100215.41
2022-10-18T04:43:08.816Z,100212.44
2022-10-18T04:45:35.809Z,100206.50
2022-10-18T04:48:03.179Z,100203.19
2022-10-18T04:50:30.075Z,100209.59
2022-10-18T04:52:57.322Z,100201.41
2022-10-18T04:55:24.336Z,100192.03
2022-10-18T04:57:51.154Z,100191.78
2022-10-18T05:00:18.092Z,100190.81
2022-10-18T05:02:45.451Z,100192.31
2022-10-18T05:05:14.074Z,100184.81
2022-10-18T05:07:41.275Z,100182.88
2022-10-18T05:10:08.646Z,100183.41
2022-10-18T05:12:35.701Z,100190.16
2022-10-18T05:15:02.636Z,100186.28
2022-10-18T05:17:30.746Z,100194.91
2022-10-18T05:19:57.692Z,100204.66
2022-10-18T05:22:24.596Z,100206.66
2022-10-18T05:24:51.473Z,100216.53
2022-10-18T05:27:18.372Z,100214.03
2022-10-18T05:29:45.386Z,100209.94
2022-10-18T05:32:12.399Z,100206.09
2022-10-18T05:34:39.442Z,100198.13
2022-10-18T05:37:07.202Z,100205.72
2022-10-18T05:39:34.277Z,100206.91
2022-10-18T05:42:01.220Z,100211.41
2022-10-18T05:44:28.141Z,100209.50
2022-10-18T05:46:55.156Z,100192.91
2022-10-18T05:49:22.037Z,100189.19
2022-10-18T05:51:49.014Z,100187.75
2022-10-18T05:54:16.066Z,100183.72
2022-10-18T05:56:43.004Z,100180.88
2022-10-18T05:59:12.384Z,100178.81
2022-10-18T06:01:41.214Z,100176.09
2022-10-18T06:04:10.173Z,100172.47
2022-10-18T06:06:38.989Z,100164.91
2022-10-18T06:09:07.442Z,100162.72
2022-10-18T06:11:36.131Z,100154.00
2022-10-18T06:14:03.297Z,100135.09
2022-10-18T06:16:32.608Z,100141.38
2022-10-18T06:19:00.208Z,100138.91
2022-10-18T06:21:27.843Z,100139.63
2022-10-18T06:23:58.028Z,100129.63
2022-10-18T06:26:25.698Z,100123.97
2022-10-18T06:28:52.690Z,100123.63
2022-10-18T06:31:21.384Z,100109.75
2022-10-18T06:33:48.529Z,100107.06
2022-10-18T06:36:18.545Z,100077.66
2022-10-18T06:38:45.706Z,100070.53
2022-10-18T06:41:12.803Z,100055.13
2022-10-18T06:43:39.911Z,100029.56
2022-10-18T06:46:08.456Z,100010.47
2022-10-18T06:48:36.758Z,99990.53
2022-10-18T06:51:06.143Z,100006.16
2022-10-18T06:53:43.855Z,100010.56
2022-10-18T06:56:15.996Z,100015.22
2022-10-18T06:58:43.057Z,99990.22
2022-10-18T07:01:13.335Z,99989.38
2022-10-18T07:03:40.315Z,99964.94
2022-10-18T07:06:09.609Z,99966.16
2022-10-18T07:08:37.384Z,99954.88
2022-10-18T07:11:05.187Z,99923.44
2022-10-18T07:13:33.656Z,99903.97
2022-10-18T07:16:03.055Z,99916.09
2022-10-18T07:18:29.956Z,99913.19
2022-10-18T07:20:56.815Z,99895.91
2022-10-18T07:23:24.116Z,99887.78
2022-10-18T07:25:51.273Z,99874.59
2022-10-18T07:28:18.463Z,99862.38
2022-10-18T07:30:45.824Z,99848.78
2022-10-18T07:33:12.782Z,99833.25
2022-10-18T07:35:39.635Z,99821.59
2022-10-18T07:38:06.559Z,99813.63
2022-10-18T07:40:33.481Z,99806.19
2022-10-18T07:43:04.544Z,99804.25
2022-10-18T07:45:32.396Z,99786.41
2022-10-18T07:47:59.400Z,99781.19
2022-10-18T07:50:26.335Z,99761.97
2022-10-18T07:52:53.250Z,99748.50
2022-10-18T07:55:20.183Z,99735.31
2022-10-18T07:57:47.037Z,99730.22
2022-10-18T08:00:14.270Z,99713.63
2022-10-18T08:02:42.052Z,99700.97
2022-10-18T08:05:09.498Z,99686.72
2022-10-18T08:07:36.317Z,99682.31
2022-10-18T08:10:04.050Z,99677.75
2022-10-18T08:12:30.981Z,99662.81
2022-10-18T08:14:57.931Z,99649.06
2022-10-18T08:17:24.839Z,99615.03
2022-10-18T08:20:04.770Z,99620.28
2022-10-18T08:22:38.761Z,99588.84
2022-10-18T08:25:06.221Z,99568.94
2022-10-18T08:27:33.258Z,99531.47
2022-10-18T08:30:02.094Z,99507.16
2022-10-18T08:32:31.154Z,99473.41
2022-10-18T08:34:58.309Z,99462.97
2022-10-18T08:37:25.148Z,99449.78
2022-10-18T08:39:52.028Z,99444.00
2022-10-18T08:42:49.480Z,99419.06
2022-10-18T08:45:30.219Z,99374.00
2022-10-18T08:48:04.705Z,99374.31
2022-10-18T08:50:36.868Z,99391.09
2022-10-18T08:53:14.461Z,99395.75
2022-10-18T08:55:48.560Z,99384.34
2022-10-18T08:58:20.426Z,99367.06
2022-10-18T09:01:20.963Z,99379.22
2022-10-18T09:04:09.910Z,99429.88
2022-10-18T09:06:55.322Z,99406.28
2022-10-18T09:09:25.242Z,99408.03
2022-10-18T09:11:58.096Z,99414.28
2022-10-18T09:14:55.686Z,99414.13
2022-10-18T09:17:34.206Z,99401.59
2022-10-18T09:20:27.651Z,99390.22
2022-10-18T09:23:15.816Z,99391.13
2022-10-18T09:25:49.203Z,99380.13
2022-10-18T09:28:28.132Z,99357.13
2022-10-18T09:31:06.005Z,99359.59
2022-10-18T09:33:35.781Z,99348.47
2022-10-18T09:36:06.293Z,99345.13
2022-10-18T09:38:41.880Z,99347.69
2022-10-18T09:41:34.333Z,99344.13
2022-10-18T09:44:06.959Z,99339.97
2022-10-18T09:46:39.398Z,99331.69
2022-10-18T09:49:16.636Z,99329.56
2022-10-18T09:51:45.219Z,99325.69
2022-10-18T09:54:26.546Z,99315.75
2022-10-18T09:57:11.402Z,99307.16
2022-10-18T09:59:47.556Z,99309.81
2022-10-18T10:02:23.821Z,99302.19
2022-10-18T10:04:52.295Z,99291.41
2022-10-18T10:07:29.929Z,99288.19
2022-10-18T10:10:26.325Z,99281.88
2022-10-18T10:13:22.992Z,99278.28
2022-10-18T10:16:03.604Z,99269.16
2022-10-18T10:18:33.716Z,99270.50
2022-10-18T10:21:05.863Z,99272.34
2022-10-18T10:23:51.031Z,99260.78
2022-10-18T10:26:25.346Z,99260.28
2022-10-18T10:28:52.536Z,99247.38
2022-10-18T10:31:25.571Z,99251.34
2022-10-18T10:34:01.101Z,99244.16
2022-10-18T10:36:29.516Z,99262.63
2022-10-18T10:39:23.915Z,99245.97
2022-10-18T10:41:53.358Z,99240.41
2022-10-18T10:44:23.437Z,99237.16
2022-10-18T10:46:52.164Z,99239.94
2022-10-18T10:49:39.555Z,99245.97
2022-10-18T10:52:26.917Z,99231.75
2022-10-18T10:55:30.789Z,99217.19
2022-10-18T10:57:50.372Z,99219.47
2022-10-18T11:00:37.631Z,99221.88
2022-10-18T11:03:28.093Z,99206.47
2022-10-18T11:05:57.987Z,99198.06
2022-10-18T11:08:28.375Z,99203.78
2022-10-18T11:11:04.872Z,99190.28
2022-10-18T11:13:50.002Z,99194.50
2022-10-18T11:16:46.675Z,99201.84
2022-10-18T11:19:32.708Z,99199.88
2022-10-18T11:22:04.238Z,99205.22
2022-10-18T11:24:31.605Z,99211.13
2022-10-18T11:27:32.114Z,99206.34
2022-10-18T11:30:43.305Z,99207.13
2022-10-18T11:33:16.014Z,99204.03
2022-10-18T11:36:05.096Z,99202.34
2022-10-18T11:38:57.523Z,99194.13
2022-10-18T11:41:31.562Z,99190.31
2022-10-18T11:44:03.310Z,99204.41
2022-10-18T11:46:54.333Z,99204.34
2022-10-18T11:49:33.174Z,99202.06
2022-10-18T11:52:15.058Z,99209.53
2022-10-18T11:55:11.611Z,99202.00
2022-10-18T11:57:57.395Z,99201.94
2022-10-18T12:00:52.303Z,99196.31
2022-10-18T12:03:38.799Z,99194.00
2022-10-18T12:06:15.000Z,99198.06
2022-10-18T12:09:04.144Z,99201.63
2022-10-18T12:11:38.706Z,99199.81
2022-10-18T12:14:22.746Z,99190.88
2022-10-18T12:16:53.651Z,99199.22
2022-10-18T12:19:33.135Z,99199.03
2022-10-18T12:22:23.231Z,99198.78
2022-10-18T12:24:50.350Z,99207.94
2022-10-18T12:27:18.689Z,99196.63
2022-10-18T12:29:52.998Z,99204.91
2022-10-18T12:32:27.182Z,99195.44
2022-10-18T12:35:11.956Z,99192.63
2022-10-18T12:38:02.981Z,99202.41
2022-10-18T12:40:41.396Z,99196.97
2022-10-18T12:43:10.919Z,99187.09
2022-10-18T12:45:58.196Z,99202.06
2022-10-18T12:48:30.144Z,99192.00
2022-10-18T12:51:05.168Z,99193.53
2022-10-18T12:53:33.027Z,99202.25
2022-10-18T12:56:27.999Z,99203.88
2022-10-18T12:59:26.381Z,99200.88
2022-10-18T13:01:53.499Z,99204.13
2022-10-18T13:04:32.497Z,99201.19
2022-10-18T13:07:05.356Z,99204.47
2022-10-18T13:09:36.419Z,99212.97
2022-10-18T13:12:15.006Z,99207.72
2022-10-18T13:15:13.434Z,99211.63
2022-10-18T13:17:53.539Z,99205.16
2022-10-18T13:20:45.784Z,99209.44
2022-10-18T13:23:27.775Z,99209.88
2022-10-18T13:26:03.180Z,99215.94
2022-10-18T13:28:48.410Z,99226.47
2022-10-18T13:31:27.584Z,99211.63
2022-10-18T13:33:54.883Z,99217.50
2022-10-18T13:36:26.783Z,99222.94
2022-10-18T13:38:53.653Z,99232.00
2022-10-18T13:44:30.517Z,99240.72
2022-10-18T13:46:57.295Z,99242.44
2022-10-18T13:49:39.290Z,99241.09
2022-10-18T13:52:43.830Z,99254.31
2022-10-18T13:55:55.006Z,99250.69
2022-10-18T13:59:05.708Z,99251.88
2022-10-18T14:02:30.730Z,99260.38
2022-10-18T14:05:29.575Z,99257.94
2022-10-18T14:08:11.425Z,99261.94
2022-10-18T14:11:16.018Z,99262.97
2022-10-18T14:13:48.073Z,99268.69
2022-10-18T14:16:28.065Z,99259.50
2022-10-18T14:19:02.599Z,99262.84
2022-10-18T14:21:36.305Z,99259.66
2022-10-18T14:24:09.237Z,99268.88
2022-10-18T14:26:36.305Z,99267.75
2022-10-18T14:29:06.351Z,99274.63
2022-10-18T14:31:34.792Z,99268.09
2022-10-18T14:34:03.160Z,99270.06
2022-10-18T14:36:41.190Z,99285.94
2022-10-18T14:39:20.029Z,99286.63
2022-10-18T14:41:55.064Z,99289.63
2022-10-18T14:44:27.243Z,99281.97
2022-10-18T14:47:03.212Z,99283.31
2022-10-18T14:49:30.888Z,99288.72
2022-10-18T14:52:00.507Z,99302.34
2022-10-18T14:54:33.113Z,99308.69
2022-10-18T14:57:02.082Z,99311.47
2022-10-18T14:59:32.699Z,99314.44
2022-10-18T15:02:05.160Z,99314.78
2022-10-18T15:04:35.245Z,99315.94
2022-10-18T15:07:07.823Z,99312.00
2022-10-18T15:09:37.048Z,99320.22
2022-10-18T15:12:06.194Z,99320.09
2022-10-18T15:14:34.957Z,99330.59
2022-10-18T15:17:14.295Z,99330.88
2022-10-18T15:19:54.713Z,99336.81
2022-10-18T15:22:32.061Z,99338.19
2022-10-18T15:25:05.778Z,99345.66
2022-10-18T15:27:36.586Z,99350.75
2022-10-18T15:30:17.822Z,99355.94
2022-10-18T15:33:05.683Z,99357.59
2022-10-18T15:35:34.802Z,99364.31
2022-10-18T15:38:33.096Z,99370.59
2022-10-18T15:41:00.008Z,99387.38
2022-10-18T15:43:26.770Z,99390.47
2022-10-18T15:45:57.709Z,99396.34
2022-10-18T15:48:47.189Z,99397.66
2022-10-18T15:51:33.957Z,99395.19
2022-10-18T15:54:00.873Z,99400.50
2022-10-18T15:56:38.630Z,99400.16
2022-10-18T15:59:21.060Z,99397.88
2022-10-18T16:01:48.258Z,99386.53
2022-10-18T16:04:23.687Z,99404.09
2022-10-18T16:06:51.014Z,99406.75
2022-10-18T16:09:19.707Z,99405.94
2022-10-18T16:11:52.936Z,99408.41
2022-10-18T16:14:23.411Z,99411.03
2022-10-18T16:16:54.655Z,99412.69
2022-10-18T16:19:22.905Z,99411.19
2022-10-18T16:21:51.810Z,99415.66
2022-10-18T16:24:19.231Z,99426.16
2022-10-18T16:26:46.834Z,99439.94
2022-10-18T16:29:15.475Z,99427.47
2022-10-18T16:31:43.005Z,99435.34
2022-10-18T16:34:11.360Z,99440.94
2022-10-18T16:36:38.235Z,99443.38
2022-10-18T16:39:07.929Z,99446.19
2022-10-18T16:41:34.886Z,99467.81
2022-10-18T16:44:01.743Z,99487.16
2022-10-18T16:46:31.634Z,99475.03
2022-10-18T16:48:58.865Z,99482.06
2022-10-18T16:51:26.390Z,99482.25
2022-10-18T16:53:53.844Z,99488.50
2022-10-18T16:56:32.325Z,99489.66
2022-10-18T16:58:59.942Z,99490.44
2022-10-18T17:01:26.955Z,99491.59
2022-10-18T17:03:54.047Z,99497.97
2022-10-18T17:06:27.041Z,99502.41
2022-10-18T17:08:55.427Z,99509.13
2022-10-18T17:11:24.700Z,99500.94
2022-10-18T17:13:51.714Z,99494.38
2022-10-18T17:18:57.843Z,99490.78
2022-10-18T17:21:26.225Z,99478.47
2022-10-18T17:23:53.866Z,99480.63
2022-10-18T17:26:30.668Z,99482.53
2022-10-18T17:29:01.481Z,99498.44
2022-10-18T17:31:29.805Z,99493.53
2022-10-18T17:33:58.460Z,99510.56
2022-10-18T17:36:26.244Z,99507.44
2022-10-18T17:38:54.563Z,99510.72
2022-10-18T17:41:21.956Z,99501.50
2022-10-18T17:43:48.851Z,99503.47
2022-10-18T17:46:17.866Z,99498.88
2022-10-18T17:48:45.429Z,99496.91
2022-10-18T17:51:15.245Z,99509.50
2022-10-18T17:53:42.386Z,99500.47
2022-10-18T17:56:11.754Z,99502.13
2022-10-18T17:58:39.113Z,99505.06
2022-10-18T18:01:12.029Z,99516.34
2022-10-18T18:03:39.309Z,99517.81
2022-10-18T18:06:20.580Z,99509.31
2022-10-18T18:08:49.027Z,99513.56
2022-10-18T18:11:17.432Z,99508.47
2022-10-18T18:13:44.464Z,99496.16
2022-10-18T18:16:19.743Z,99497.47
2022-10-18T18:18:48.639Z,99509.53
2022-10-18T18:21:15.876Z,99495.78
2022-10-18T18:23:43.154Z,99506.19
2022-10-18T18:26:10.084Z,99502.88
2022-10-18T18:28:37.471Z,99507.22
2022-10-18T18:31:09.850Z,99502.91
2022-10-18T18:33:37.128Z,99510.84
2022-10-18T18:36:05.268Z,99507.34
2022-10-18T18:38:33.512Z,99515.34
2022-10-18T18:41:04.606Z,99508.25
2022-10-18T18:43:31.664Z,99500.06
2022-10-18T18:45:58.826Z,99493.63
2022-10-18T18:48:29.264Z,99493.28
2022-10-18T18:50:56.208Z,99504.19
2022-10-18T18:53:27.140Z,99499.41
2022-10-18T18:56:05.421Z,99494.94
2022-10-18T18:58:34.046Z,99498.38
2022-10-18T19:01:07.002Z,99493.47
2022-10-18T19:03:33.950Z,99501.00
2022-10-18T19:06:05.784Z,99498.38
2022-10-18T19:08:35.435Z,99505.09
2022-10-18T19:11:03.658Z,99501.22
2022-10-18T19:13:32.816Z,99508.31
2022-10-18T19:16:22.920Z,99511.63
2022-10-18T19:19:02.075Z,99526.34
2022-10-18T19:21:31.388Z,99522.44
2022-10-18T19:23:59.143Z,99515.00
2022-10-18T19:26:45.983Z,99514.38
2022-10-18T19:29:19.229Z,99519.31
2022-10-18T19:31:46.215Z,99518.97
2022-10-18T19:34:14.778Z,99518.69
2022-10-18T19:36:43.381Z,99517.25
2022-10-18T19:39:18.417Z,99514.78
2022-10-18T19:41:50.738Z,99511.13
2022-10-18T19:44:22.346Z,99513.53
2022-10-18T19:46:49.824Z,99505.88
2022-10-18T19:49:16.993Z,99512.44
2022-10-18T19:51:44.144Z,99505.28
2022-10-18T19:54:15.509Z,99507.75
2022-10-18T19:56:43.213Z,99510.53
2022-10-18T19:59:11.671Z,99504.13
2022-10-18T20:01:39.017Z,99498.25
2022-10-18T20:04:08.368Z,99510.41
2022-10-18T20:06:36.316Z,99508.09
2022-10-18T20:09:04.659Z,99520.00
2022-10-18T20:11:32.720Z,99507.59
2022-10-18T20:13:59.923Z,99497.78
2022-10-18T20:16:29.164Z,99482.09
2022-10-18T20:19:01.537Z,99475.75
2022-10-18T20:21:30.297Z,99471.47
2022-10-18T20:23:57.252Z,99460.34
2022-10-18T20:26:25.637Z,99469.94
2022-10-18T20:28:58.230Z,99466.50
2022-10-18T20:31:30.829Z,99464.03
2022-10-18T20:34:03.612Z,99468.44
2022-10-18T20:36:32.144Z,99464.72
2022-10-18T20:38:59.531Z,99459.75
2022-10-18T20:41:29.372Z,99461.94
2022-10-18T20:43:57.536Z,99470.59
2022-10-18T20:46:25.743Z,99471.13
2022-10-18T20:48:54.033Z,99466.41
2022-10-18T20:51:21.763Z,99473.22
2022-10-18T20:53:49.284Z,99467.59
2022-10-18T20:56:20.499Z,99476.59
2022-10-18T20:58:49.572Z,99455.38
2022-10-18T21:01:22.386Z,99455.75
2022-10-18T21:03:51.243Z,99461.78
2022-10-18T21:06:27.150Z,99466.69
2022-10-18T21:08:56.036Z,99478.81
2022-10-18T21:11:25.465Z,99465.22
2022-10-18T21:14:03.002Z,99474.09
2022-10-18T21:16:31.230Z,99470.19
2022-10-18T21:19:06.054Z,99465.78
2022-10-18T21:21:33.623Z,99470.34
2022-10-18T21:24:03.827Z,99459.50
2022-10-18T21:26:34.437Z,99462.66
2022-10-18T21:29:02.038Z,99459.03
2022-10-18T21:31:39.243Z,99455.78
2022-10-18T21:34:12.945Z,99450.88
2022-10-18T21:36:40.886Z,99449.25
2022-10-18T21:39:12.882Z,99454.19
2022-10-18T21:41:39.884Z,99454.19
2022-10-18T21:44:09.931Z,99452.22
2022-10-18T21:46:39.491Z,99448.94
2022-10-18T21:49:07.572Z,99450.56
2022-10-18T21:51:34.768Z,99445.34
2022-10-18T21:54:01.896Z,99439.09
2022-10-18T21:56:31.931Z,99447.59
2022-10-18T21:59:00.407Z,99452.84
2022-10-18T22:01:36.324Z,99439.09
2022-10-18T22:04:05.973Z,99439.09
2022-10-18T22:09:07.308Z,99438.59
2022-10-18T22:11:46.783Z,99436.13
2022-10-18T22:14:13.793Z,99436.13
2022-10-18T22:16:40.741Z,99430.88
2022-10-18T22:19:07.746Z,99431.19
2022-10-18T22:21:35.302Z,99434.50
2022-10-18T22:24:06.367Z,99415.00
2022-10-18T22:26:36.750Z,99417.16
2022-10-18T22:29:12.467Z,99419.75
2022-10-18T22:31:42.501Z,99410.25
2022-10-18T22:34:14.002Z,99401.44
2022-10-18T22:36:41.263Z,99407.97
2022-10-18T22:39:09.028Z,99408.66
2022-10-18T22:41:36.596Z,99410.59
2022-10-18T22:44:04.294Z,99401.56
2022-10-18T22:46:32.960Z,99401.56
2022-10-18T22:49:00.165Z,99395.13
2022-10-18T22:51:27.115Z,99412.13
2022-10-18T22:53:55.906Z,99403.81
2022-10-18T22:56:23.511Z,99390.28
2022-10-18T22:58:51.828Z,99389.97
2022-10-18T23:01:22.024Z,99376.72
2022-10-18T23:03:56.890Z,99379.66
2022-10-18T23:06:29.658Z,99378.00
2022-10-18T23:08:58.347Z,99372.94
2022-10-18T23:11:26.979Z,99374.28
2022-10-18T23:13:55.099Z,99367.91
2022-10-18T23:16:22.712Z,99359.09
2022-10-18T23:18:57.241Z,99357.25
2022-10-18T23:21:26.736Z,99358.25
2022-10-18T23:23:55.165Z,99348.78
2022-10-18T23:26:27.514Z,99349.78
2022-10-18T23:28:55.292Z,99337.38
2022-10-18T23:31:28.233Z,99335.25
2022-10-18T23:33:57.237Z,99335.75
2022-10-18T23:36:25.269Z,99331.03
2022-10-18T23:38:52.361Z,99321.69
2022-10-18T23:41:25.211Z,99329.88
2022-10-18T23:43:52.823Z,99334.78
2022-10-18T23:46:20.244Z,99317.13
2022-10-18T23:48:47.944Z,99324.00
2022-10-18T23:51:15.990Z,99317.81
2022-10-18T23:53:43.342Z,99332.34
2022-10-18T23:56:13.147Z,99330.56
2022-10-18T23:58:41.792Z,99326.94
